sensor_id;sensor_type;location;lat;lon;timestamp;pressure;altitude;pressure_sealevel;temperature;humidity
73600;BME280;61877;48.246;9.220;2022-12-20T00:02:39;94715.47;;;-1.24;96.73
73600;BME280;61877;48.246;9.220;2022-12-20T00:05:05;94713.31;;;-1.27;96.76
73600;BME280;61877;48.246;9.220;2022-12-20T00:07:31;94712.53;;;-1.28;96.57
73600;BME280;61877;48.246;9.220;2022-12-20T00:09:58;94705.91;;;-1.31;96.72
73600;BME280;61877;48.246;9.220;2022-12-20T00:12:24;94713.78;;;-1.36;96.55
73600;BME280;61877;48.246;9.220;2022-12-20T00:14:49;94710.59;;;-1.38;96.90
73600;BME280;61877;48.246;9.220;2022-12-20T00:17:14;94724.84;;;-1.34;97.16
73600;BME280;61877;48.246;9.220;2022-12-20T00:19:42;94725.66;;;-1.33;97.22
73600;BME280;61877;48.246;9.220;2022-12-20T00:22:07;94717.75;;;-1.33;96.98
73600;BME280;61877;48.246;9.220;2022-12-20T00:24:33;94719.84;;;-1.35;97.01
73600;BME280;61877;48.246;9.220;2022-12-20T00:27:00;94728.22;;;-1.38;96.89
73600;BME280;61877;48.246;9.220;2022-12-20T00:29:25;94720.59;;;-1.40;97.40
73600;BME280;61877;48.246;9.220;2022-12-20T00:31:51;94714.22;;;-1.44;97.02
73600;BME280;61877;48.246;9.220;2022-12-20T00:34:16;94712.63;;;-1.45;97.06
73600;BME280;61877;48.246;9.220;2022-12-20T00:36:42;94710.59;;;-1.38;97.24
73600;BME280;61877;48.246;9.220;2022-12-20T00:39:08;94709.50;;;-1.42;96.96
73600;BME280;61877;48.246;9.220;2022-12-20T00:41:34;94711.78;;;-1.50;96.85
73600;BME280;61877;48.246;9.220;2022-12-20T00:44:01;94704.59;;;-1.60;96.83
73600;BME280;61877;48.246;9.220;2022-12-20T00:46:27;94698.16;;;-1.69;96.85
73600;BME280;61877;48.246;9.220;2022-12-20T00:48:53;94706.50;;;-1.77;96.70
73600;BME280;61877;48.246;9.220;2022-12-20T00:51:21;94707.72;;;-1.84;96.66
73600;BME280;61877;48.246;9.220;2022-12-20T00:53:47;94706.06;;;-1.90;96.91
73600;BME280;61877;48.246;9.220;2022-12-20T00:56:13;94714.44;;;-1.93;97.05
73600;BME280;61877;48.246;9.220;2022-12-20T00:58:40;94701.84;;;-1.91;97.37
73600;BME280;61877;48.246;9.220;2022-12-20T01:01:17;94710.56;;;-1.91;97.17
73600;BME280;61877;48.246;9.220;2022-12-20T01:03:43;94713.25;;;-1.86;97.04
73600;BME280;61877;48.246;9.220;2022-12-20T01:06:09;94724.72;;;-1.92;97.25
73600;BME280;61877;48.246;9.220;2022-12-20T01:08:34;94720.13;;;-2.01;96.79
73600;BME280;61877;48.246;9.220;2022-12-20T01:11:02;94717.13;;;-2.10;96.75
73600;BME280;61877;48.246;9.220;2022-12-20T01:13:28;94727.34;;;-2.13;97.11
73600;BME280;61877;48.246;9.220;2022-12-20T01:15:53;94726.53;;;-2.14;97.23
73600;BME280;61877;48.246;9.220;2022-12-20T01:18:20;94730.69;;;-2.18;97.01
73600;BME280;61877;48.246;9.220;2022-12-20T01:20:46;94724.31;;;-2.22;97.01
73600;BME280;61877;48.246;9.220;2022-12-20T01:23:11;94733.75;;;-2.26;96.82
73600;BME280;61877;48.246;9.220;2022-12-20T01:25:37;94743.94;;;-2.29;96.90
73600;BME280;61877;48.246;9.220;2022-12-20T01:28:02;94734.22;;;-2.29;97.13
73600;BME280;61877;48.246;9.220;2022-12-20T01:30:28;94743.13;;;-2.30;97.10
73600;BME280;61877;48.246;9.220;2022-12-20T01:32:53;94743.69;;;-2.28;97.17
73600;BME280;61877;48.246;9.220;2022-12-20T01:35:23;94740.22;;;-2.12;96.52
73600;BME280;61877;48.246;9.220;2022-12-20T01:37:49;94738.72;;;-2.08;95.34
73600;BME280;61877;48.246;9.220;2022-12-20T01:40:14;94739.72;;;-2.09;95.95
73600;BME280;61877;48.246;9.220;2022-12-20T01:42:40;94735.53;;;-2.10;95.95
73600;BME280;61877;48.246;9.220;2022-12-20T01:45:12;94736.88;;;-2.07;96.46
73600;BME280;61877;48.246;9.220;2022-12-20T01:47:39;94733.78;;;-2.04;96.39
73600;BME280;61877;48.246;9.220;2022-12-20T01:50:07;94735.09;;;-2.02;96.44
73600;BME280;61877;48.246;9.220;2022-12-20T01:52:36;94737.91;;;-1.87;96.60
73600;BME280;61877;48.246;9.220;2022-12-20T01:55:10;94745.06;;;-1.82;96.29
73600;BME280;61877;48.246;9.220;2022-12-20T01:57:41;94744.72;;;-1.69;96.17
73600;BME280;61877;48.246;9.220;2022-12-20T02:00:09;94735.22;;;-1.70;95.24
73600;BME280;61877;48.246;9.220;2022-12-20T02:02:35;94732.28;;;-1.74;95.57
73600;BME280;61877;48.246;9.220;2022-12-20T02:05:01;94728.63;;;-1.73;95.32
73600;BME280;61877;48.246;9.220;2022-12-20T02:07:28;94729.66;;;-1.74;95.57
73600;BME280;61877;48.246;9.220;2022-12-20T02:09:57;94707.34;;;-1.71;95.76
73600;BME280;61877;48.246;9.220;2022-12-20T02:12:25;94705.75;;;-1.72;95.87
73600;BME280;61877;48.246;9.220;2022-12-20T02:15:02;94699.22;;;-1.70;96.06
73600;BME280;61877;48.246;9.220;2022-12-20T02:17:41;94688.44;;;-1.68;96.21
73600;BME280;61877;48.246;9.220;2022-12-20T02:23:21;94696.88;;;-1.66;96.29
73600;BME280;61877;48.246;9.220;2022-12-20T02:26:09;94696.63;;;-1.65;96.75
73600;BME280;61877;48.246;9.220;2022-12-20T02:28:55;94693.22;;;-1.65;96.32
73600;BME280;61877;48.246;9.220;2022-12-20T02:31:32;94696.88;;;-1.66;96.53
73600;BME280;61877;48.246;9.220;2022-12-20T02:33:59;94686.63;;;-1.68;96.26
73600;BME280;61877;48.246;9.220;2022-12-20T02:36:25;94691.13;;;-1.63;96.45
73600;BME280;61877;48.246;9.220;2022-12-20T02:38:51;94690.81;;;-1.67;96.22
73600;BME280;61877;48.246;9.220;2022-12-20T02:41:19;94690.03;;;-1.67;96.32
73600;BME280;61877;48.246;9.220;2022-12-20T02:43:48;94678.91;;;-1.74;96.30
73600;BME280;61877;48.246;9.220;2022-12-20T02:46:15;94684.97;;;-1.74;96.73
73600;BME280;61877;48.246;9.220;2022-12-20T02:48:46;94684.56;;;-1.61;96.50
73600;BME280;61877;48.246;9.220;2022-12-20T02:51:13;94689.00;;;-1.66;96.00
73600;BME280;61877;48.246;9.220;2022-12-20T02:53:41;94697.59;;;-1.71;95.76
73600;BME280;61877;48.246;9.220;2022-12-20T02:56:11;94690.22;;;-1.74;96.10
73600;BME280;61877;48.246;9.220;2022-12-20T02:58:43;94691.22;;;-1.80;96.21
73600;BME280;61877;48.246;9.220;2022-12-20T03:01:15;94696.78;;;-1.76;96.53
73600;BME280;61877;48.246;9.220;2022-12-20T03:03:42;94689.66;;;-1.76;96.68
73600;BME280;61877;48.246;9.220;2022-12-20T03:06:09;94684.97;;;-1.74;96.46
73600;BME280;61877;48.246;9.220;2022-12-20T03:08:34;94691.81;;;-1.73;96.58
73600;BME280;61877;48.246;9.220;2022-12-20T03:11:00;94680.00;;;-1.70;96.40
73600;BME280;61877;48.246;9.220;2022-12-20T03:13:25;94685.56;;;-1.67;96.54
73600;BME280;61877;48.246;9.220;2022-12-20T03:15:51;94676.63;;;-1.66;96.34
73600;BME280;61877;48.246;9.220;2022-12-20T03:18:17;94676.16;;;-1.63;96.50
73600;BME280;61877;48.246;9.220;2022-12-20T03:20:42;94665.63;;;-1.63;96.29
73600;BME280;61877;48.246;9.220;2022-12-20T03:23:09;94657.00;;;-1.58;96.61
73600;BME280;61877;48.246;9.220;2022-12-20T03:25:35;94650.41;;;-1.56;96.40
73600;BME280;61877;48.246;9.220;2022-12-20T03:28:00;94653.91;;;-1.50;96.54
73600;BME280;61877;48.246;9.220;2022-12-20T03:30:26;94648.94;;;-1.47;96.32
73600;BME280;61877;48.246;9.220;2022-12-20T03:32:51;94656.88;;;-1.42;96.06
73600;BME280;61877;48.246;9.220;2022-12-20T03:35:17;94661.34;;;-1.42;95.95
73600;BME280;61877;48.246;9.220;2022-12-20T03:37:42;94666.84;;;-1.44;96.12
73600;BME280;61877;48.246;9.220;2022-12-20T03:40:10;94661.53;;;-1.49;96.30
73600;BME280;61877;48.246;9.220;2022-12-20T03:42:36;94657.91;;;-1.48;96.33
73600;BME280;61877;48.246;9.220;2022-12-20T03:45:02;94660.28;;;-1.46;96.42
73600;BME280;61877;48.246;9.220;2022-12-20T03:47:27;94663.16;;;-1.43;96.43
73600;BME280;61877;48.246;9.220;2022-12-20T03:49:52;94659.53;;;-1.42;96.25
73600;BME280;61877;48.246;9.220;2022-12-20T03:52:18;94644.22;;;-1.45;96.09
73600;BME280;61877;48.246;9.220;2022-12-20T03:54:43;94641.06;;;-1.47;96.27
73600;BME280;61877;48.246;9.220;2022-12-20T03:57:10;94640.78;;;-1.45;96.44
73600;BME280;61877;48.246;9.220;2022-12-20T03:59:36;94641.84;;;-1.46;96.29
73600;BME280;61877;48.246;9.220;2022-12-20T04:02:02;94640.59;;;-1.39;96.43
73600;BME280;61877;48.246;9.220;2022-12-20T04:04:27;94640.69;;;-1.28;96.00
73600;BME280;61877;48.246;9.220;2022-12-20T04:06:53;94641.44;;;-1.01;95.40
73600;BME280;61877;48.246;9.220;2022-12-20T04:09:18;94649.97;;;-0.84;94.25
73600;BME280;61877;48.246;9.220;2022-12-20T04:11:44;94643.00;;;-1.00;94.56
73600;BME280;61877;48.246;9.220;2022-12-20T04:14:11;94638.22;;;-1.08;94.74
73600;BME280;61877;48.246;9.220;2022-12-20T04:16:37;94636.59;;;-1.14;95.04
73600;BME280;61877;48.246;9.220;2022-12-20T04:19:02;94639.19;;;-1.19;95.72
73600;BME280;61877;48.246;9.220;2022-12-20T04:21:30;94632.31;;;-1.20;95.83
73600;BME280;61877;48.246;9.220;2022-12-20T04:23:56;94631.03;;;-1.18;95.88
73600;BME280;61877;48.246;9.220;2022-12-20T04:26:22;94631.31;;;-1.19;95.84
73600;BME280;61877;48.246;9.220;2022-12-20T04:28:48;94630.50;;;-1.20;95.96
73600;BME280;61877;48.246;9.220;2022-12-20T04:31:14;94627.06;;;-1.20;96.22
73600;BME280;61877;48.246;9.220;2022-12-20T04:33:40;94632.31;;;-1.20;96.13
73600;BME280;61877;48.246;9.220;2022-12-20T04:36:05;94630.78;;;-1.16;96.17
73600;BME280;61877;48.246;9.220;2022-12-20T04:38:31;94628.72;;;-1.14;96.12
73600;BME280;61877;48.246;9.220;2022-12-20T04:40:57;94632.91;;;-1.13;96.47
73600;BME280;61877;48.246;9.220;2022-12-20T04:43:23;94629.53;;;-1.09;96.16
73600;BME280;61877;48.246;9.220;2022-12-20T04:45:50;94621.63;;;-1.09;96.38
73600;BME280;61877;48.246;9.220;2022-12-20T04:48:18;94629.81;;;-1.05;96.65
73600;BME280;61877;48.246;9.220;2022-12-20T04:50:47;94619.81;;;-1.03;96.14
73600;BME280;61877;48.246;9.220;2022-12-20T04:53:13;94620.09;;;-1.05;96.20
73600;BME280;61877;48.246;9.220;2022-12-20T04:55:39;94613.47;;;-1.07;96.18
73600;BME280;61877;48.246;9.220;2022-12-20T04:58:05;94598.44;;;-1.12;96.25
73600;BME280;61877;48.246;9.220;2022-12-20T05:00:31;94600.78;;;-1.15;96.51
73600;BME280;61877;48.246;9.220;2022-12-20T05:02:57;94605.19;;;-1.21;96.33
73600;BME280;61877;48.246;9.220;2022-12-20T05:05:23;94593.59;;;-1.25;96.46
73600;BME280;61877;48.246;9.220;2022-12-20T05:07:49;94597.78;;;-1.29;96.58
73600;BME280;61877;48.246;9.220;2022-12-20T05:10:16;94602.25;;;-1.29;96.77
73600;BME280;61877;48.246;9.220;2022-12-20T05:12:41;94602.25;;;-1.29;96.72
73600;BME280;61877;48.246;9.220;2022-12-20T05:15:08;94602.25;;;-1.29;96.66
73600;BME280;61877;48.246;9.220;2022-12-20T05:17:33;94606.88;;;-1.10;95.89
73600;BME280;61877;48.246;9.220;2022-12-20T05:19:59;94602.13;;;-1.13;95.56
73600;BME280;61877;48.246;9.220;2022-12-20T05:22:26;94603.66;;;-1.17;95.60
73600;BME280;61877;48.246;9.220;2022-12-20T05:24:51;94595.44;;;-1.25;95.70
73600;BME280;61877;48.246;9.220;2022-12-20T05:27:16;94594.06;;;-1.33;95.67
73600;BME280;61877;48.246;9.220;2022-12-20T05:29:42;94594.81;;;-1.38;96.03
73600;BME280;61877;48.246;9.220;2022-12-20T05:32:07;94604.25;;;-1.42;96.31
73600;BME280;61877;48.246;9.220;2022-12-20T05:34:33;94596.06;;;-1.45;96.43
73600;BME280;61877;48.246;9.220;2022-12-20T05:36:58;94585.81;;;-1.47;96.50
73600;BME280;61877;48.246;9.220;2022-12-20T05:39:25;94579.44;;;-1.51;96.40
73600;BME280;61877;48.246;9.220;2022-12-20T05:41:50;94573.88;;;-1.54;96.67
73600;BME280;61877;48.246;9.220;2022-12-20T05:44:16;94577.56;;;-1.55;96.80
73600;BME280;61877;48.246;9.220;2022-12-20T05:46:41;94577.28;;;-1.59;96.54
73600;BME280;61877;48.246;9.220;2022-12-20T05:49:07;94571.47;;;-1.61;96.77
73600;BME280;61877;48.246;9.220;2022-12-20T05:51:32;94569.34;;;-1.64;96.80
73600;BME280;61877;48.246;9.220;2022-12-20T05:53:57;94567.47;;;-1.68;96.92
73600;BME280;61877;48.246;9.220;2022-12-20T05:56:24;94568.75;;;-1.71;96.75
73600;BME280;61877;48.246;9.220;2022-12-20T05:58:49;94565.38;;;-1.66;97.15
73600;BME280;61877;48.246;9.220;2022-12-20T06:01:15;94563.53;;;-1.66;96.64
73600;BME280;61877;48.246;9.220;2022-12-20T06:03:40;94565.63;;;-1.68;96.88
73600;BME280;61877;48.246;9.220;2022-12-20T06:06:06;94560.09;;;-1.71;96.75
73600;BME280;61877;48.246;9.220;2022-12-20T06:08:32;94550.84;;;-1.74;96.98
73600;BME280;61877;48.246;9.220;2022-12-20T06:10:57;94551.09;;;-1.75;96.89
73600;BME280;61877;48.246;9.220;2022-12-20T06:13:24;94553.47;;;-1.74;97.10
73600;BME280;61877;48.246;9.220;2022-12-20T06:15:49;94553.75;;;-1.70;96.56
73600;BME280;61877;48.246;9.220;2022-12-20T06:18:15;94559.81;;;-1.70;96.75
73600;BME280;61877;48.246;9.220;2022-12-20T06:20:40;94563.72;;;-1.72;96.83
73600;BME280;61877;48.246;9.220;2022-12-20T06:23:05;94560.84;;;-1.71;96.81
73600;BME280;61877;48.246;9.220;2022-12-20T06:25:31;94565.09;;;-1.70;96.59
73600;BME280;61877;48.246;9.220;2022-12-20T06:27:56;94568.28;;;-1.68;96.88
73600;BME280;61877;48.246;9.220;2022-12-20T06:30:23;94562.50;;;-1.65;96.89
73600;BME280;61877;48.246;9.220;2022-12-20T06:32:49;94567.94;;;-1.45;96.82
73600;BME280;61877;48.246;9.220;2022-12-20T06:35:14;94562.03;;;-1.25;95.36
73600;BME280;61877;48.246;9.220;2022-12-20T06:37:40;94560.13;;;-1.35;94.88
73600;BME280;61877;48.246;9.220;2022-12-20T06:40:07;94558.47;;;-1.41;95.41
73600;BME280;61877;48.246;9.220;2022-12-20T06:42:32;94554.78;;;-1.45;95.61
73600;BME280;61877;48.246;9.220;2022-12-20T06:44:58;94564.75;;;-1.47;95.81
73600;BME280;61877;48.246;9.220;2022-12-20T06:47:24;94557.38;;;-1.50;95.88
73600;BME280;61877;48.246;9.220;2022-12-20T06:49:50;94555.00;;;-1.51;95.98
73600;BME280;61877;48.246;9.220;2022-12-20T06:52:15;94560.25;;;-1.51;96.08
73600;BME280;61877;48.246;9.220;2022-12-20T06:54:41;94560.72;;;-1.54;96.12
73600;BME280;61877;48.246;9.220;2022-12-20T06:57:06;94560.69;;;-1.59;96.18
73600;BME280;61877;48.246;9.220;2022-12-20T06:59:32;94551.22;;;-1.60;96.03
73600;BME280;61877;48.246;9.220;2022-12-20T07:01:57;94550.38;;;-1.66;96.04
73600;BME280;61877;48.246;9.220;2022-12-20T07:04:24;94543.84;;;-1.63;96.36
73600;BME280;61877;48.246;9.220;2022-12-20T07:06:49;94541.22;;;-1.63;96.44
73600;BME280;61877;48.246;9.220;2022-12-20T07:09:15;94546.22;;;-1.62;96.53
73600;BME280;61877;48.246;9.220;2022-12-20T07:11:41;94542.53;;;-1.61;95.97
73600;BME280;61877;48.246;9.220;2022-12-20T07:14:06;94543.34;;;-1.60;96.15
73600;BME280;61877;48.246;9.220;2022-12-20T07:16:32;94543.06;;;-1.59;96.05
73600;BME280;61877;48.246;9.220;2022-12-20T07:18:57;94538.66;;;-1.53;95.93
73600;BME280;61877;48.246;9.220;2022-12-20T07:21:24;94540.28;;;-1.47;96.26
73600;BME280;61877;48.246;9.220;2022-12-20T07:23:49;94538.75;;;-1.43;95.94
73600;BME280;61877;48.246;9.220;2022-12-20T07:26:15;94542.72;;;-1.36;96.31
73600;BME280;61877;48.246;9.220;2022-12-20T07:28:41;94543.03;;;-1.32;95.99
73600;BME280;61877;48.246;9.220;2022-12-20T07:31:06;94542.38;;;-1.07;95.24
73600;BME280;61877;48.246;9.220;2022-12-20T07:33:32;94541.06;;;-1.10;94.50
73600;BME280;61877;48.246;9.220;2022-12-20T07:36:01;94543.47;;;-1.03;94.98
73600;BME280;61877;48.246;9.220;2022-12-20T07:38:28;94550.31;;;-1.02;94.92
73600;BME280;61877;48.246;9.220;2022-12-20T07:40:53;94544.06;;;-0.96;95.04
73600;BME280;61877;48.246;9.220;2022-12-20T07:43:18;94536.19;;;-0.91;94.84
73600;BME280;61877;48.246;9.220;2022-12-20T07:45:44;94538.88;;;-0.81;94.68
73600;BME280;61877;48.246;9.220;2022-12-20T07:48:09;94534.41;;;-0.76;94.41
73600;BME280;61877;48.246;9.220;2022-12-20T07:50:35;94540.25;;;-0.69;94.71
73600;BME280;61877;48.246;9.220;2022-12-20T07:53:01;94539.47;;;-0.64;93.65
73600;BME280;61877;48.246;9.220;2022-12-20T07:55:30;94532.34;;;-0.69;94.14
73600;BME280;61877;48.246;9.220;2022-12-20T07:58:01;94531.09;;;-0.46;94.34
73600;BME280;61877;48.246;9.220;2022-12-20T08:00:28;94535.88;;;-0.33;93.27
73600;BME280;61877;48.246;9.220;2022-12-20T08:02:59;94539.31;;;-0.33;92.53
73600;BME280;61877;48.246;9.220;2022-12-20T08:05:26;94541.19;;;-0.23;93.07
73600;BME280;61877;48.246;9.220;2022-12-20T08:07:52;94535.69;;;-0.12;92.29
73600;BME280;61877;48.246;9.220;2022-12-20T08:10:19;94538.63;;;-0.03;92.01
73600;BME280;61877;48.246;9.220;2022-12-20T08:12:46;94535.47;;;0.05;91.06
73600;BME280;61877;48.246;9.220;2022-12-20T08:15:13;94547.59;;;0.01;91.64
73600;BME280;61877;48.246;9.220;2022-12-20T08:17:38;94551.03;;;0.02;91.29
73600;BME280;61877;48.246;9.220;2022-12-20T08:20:05;94541.81;;;0.09;90.65
73600;BME280;61877;48.246;9.220;2022-12-20T08:22:31;94534.97;;;0.08;91.56
73600;BME280;61877;48.246;9.220;2022-12-20T08:24:56;94533.88;;;0.04;92.04
73600;BME280;61877;48.246;9.220;2022-12-20T08:27:21;94527.31;;;0.07;92.38
73600;BME280;61877;48.246;9.220;2022-12-20T08:29:48;94522.81;;;0.07;92.30
73600;BME280;61877;48.246;9.220;2022-12-20T08:32:14;94526.50;;;0.06;92.52
73600;BME280;61877;48.246;9.220;2022-12-20T08:34:39;94516.75;;;0.07;92.49
73600;BME280;61877;48.246;9.220;2022-12-20T08:37:04;94519.91;;;0.09;92.40
73600;BME280;61877;48.246;9.220;2022-12-20T08:39:30;94518.34;;;0.08;92.44
73600;BME280;61877;48.246;9.220;2022-12-20T08:41:55;94518.09;;;0.14;92.69
73600;BME280;61877;48.246;9.220;2022-12-20T08:44:21;94523.63;;;0.08;93.05
73600;BME280;61877;48.246;9.220;2022-12-20T08:46:48;94526.00;;;0.19;93.56
73600;BME280;61877;48.246;9.220;2022-12-20T08:49:13;94511.75;;;0.20;93.39
73600;BME280;61877;48.246;9.220;2022-12-20T08:51:38;94510.72;;;0.21;92.80
73600;BME280;61877;48.246;9.220;2022-12-20T08:54:04;94511.50;;;0.37;93.18
73600;BME280;61877;48.246;9.220;2022-12-20T08:56:30;94508.09;;;0.36;92.65
73600;BME280;61877;48.246;9.220;2022-12-20T08:58:55;94505.94;;;0.48;92.69
73600;BME280;61877;48.246;9.220;2022-12-20T09:01:20;94509.66;;;0.57;92.21
73600;BME280;61877;48.246;9.220;2022-12-20T09:03:48;94502.28;;;0.64;91.59
73600;BME280;61877;48.246;9.220;2022-12-20T09:06:16;94503.31;;;0.68;91.33
73600;BME280;61877;48.246;9.220;2022-12-20T09:08:42;94496.44;;;0.82;91.99
73600;BME280;61877;48.246;9.220;2022-12-20T09:11:09;94488.72;;;1.06;90.56
73600;BME280;61877;48.246;9.220;2022-12-20T09:13:35;94498.97;;;1.27;89.71
73600;BME280;61877;48.246;9.220;2022-12-20T09:16:00;94506.84;;;1.43;88.94
73600;BME280;61877;48.246;9.220;2022-12-20T09:18:26;94510.75;;;1.55;88.90
73600;BME280;61877;48.246;9.220;2022-12-20T09:20:53;94514.91;;;1.71;88.28
73600;BME280;61877;48.246;9.220;2022-12-20T09:23:18;94511.78;;;1.64;88.90
73600;BME280;61877;48.246;9.220;2022-12-20T09:25:43;94517.81;;;1.75;87.99
73600;BME280;61877;48.246;9.220;2022-12-20T09:28:10;94509.25;;;1.93;87.58
73600;BME280;61877;48.246;9.220;2022-12-20T09:30:35;94514.97;;;2.10;87.62
73600;BME280;61877;48.246;9.220;2022-12-20T09:33:00;94510.38;;;2.25;86.84
73600;BME280;61877;48.246;9.220;2022-12-20T09:35:26;94507.28;;;2.13;85.91
73600;BME280;61877;48.246;9.220;2022-12-20T09:37:52;94502.75;;;2.19;87.48
73600;BME280;61877;48.246;9.220;2022-12-20T09:40:20;94498.34;;;2.43;86.39
73600;BME280;61877;48.246;9.220;2022-12-20T09:42:46;94498.56;;;2.46;85.53
73600;BME280;61877;48.246;9.220;2022-12-20T09:45:18;94501.53;;;2.40;85.37
73600;BME280;61877;48.246;9.220;2022-12-20T09:47:45;94509.97;;;2.47;85.75
73600;BME280;61877;48.246;9.220;2022-12-20T09:50:14;94508.97;;;2.38;85.91
73600;BME280;61877;48.246;9.220;2022-12-20T09:52:54;94512.88;;;2.45;86.44
73600;BME280;61877;48.246;9.220;2022-12-20T09:55:30;94513.97;;;2.39;86.91
73600;BME280;61877;48.246;9.220;2022-12-20T09:58:10;94500.81;;;2.29;86.81
73600;BME280;61877;48.246;9.220;2022-12-20T10:00:40;94496.25;;;2.40;87.20
73600;BME280;61877;48.246;9.220;2022-12-20T10:03:14;94487.66;;;2.53;86.25
73600;BME280;61877;48.246;9.220;2022-12-20T10:05:49;94484.97;;;2.58;86.01
73600;BME280;61877;48.246;9.220;2022-12-20T10:08:23;94485.66;;;2.74;85.50
73600;BME280;61877;48.246;9.220;2022-12-20T10:10:55;94472.56;;;2.82;84.75
73600;BME280;61877;48.246;9.220;2022-12-20T10:13:42;94476.56;;;2.80;85.15
73600;BME280;61877;48.246;9.220;2022-12-20T10:16:23;94470.06;;;2.96;84.88
73600;BME280;61877;48.246;9.220;2022-12-20T10:19:00;94469.72;;;3.02;84.79
73600;BME280;61877;48.246;9.220;2022-12-20T10:21:37;94459.44;;;2.96;85.20
73600;BME280;61877;48.246;9.220;2022-12-20T10:24:15;94460.25;;;2.96;85.71
73600;BME280;61877;48.246;9.220;2022-12-20T10:26:42;94452.25;;;3.01;84.10
73600;BME280;61877;48.246;9.220;2022-12-20T10:29:08;94459.00;;;3.12;85.21
73600;BME280;61877;48.246;9.220;2022-12-20T10:31:33;94440.78;;;3.06;84.86
73600;BME280;61877;48.246;9.220;2022-12-20T10:33:59;94449.66;;;3.20;84.42
73600;BME280;61877;48.246;9.220;2022-12-20T10:36:26;94451.41;;;3.29;84.54
73600;BME280;61877;48.246;9.220;2022-12-20T10:38:53;94453.59;;;3.46;83.44
73600;BME280;61877;48.246;9.220;2022-12-20T10:41:21;94435.09;;;3.41;83.57
73600;BME280;61877;48.246;9.220;2022-12-20T10:43:49;94431.13;;;3.20;83.91
73600;BME280;61877;48.246;9.220;2022-12-20T10:46:16;94432.56;;;3.07;85.31
73600;BME280;61877;48.246;9.220;2022-12-20T10:48:43;94427.66;;;3.19;85.10
73600;BME280;61877;48.246;9.220;2022-12-20T10:51:14;94418.34;;;3.22;84.45
73600;BME280;61877;48.246;9.220;2022-12-20T10:53:50;94412.09;;;3.13;85.35
73600;BME280;61877;48.246;9.220;2022-12-20T10:56:19;94413.31;;;3.20;84.87
73600;BME280;61877;48.246;9.220;2022-12-20T10:58:51;94408.25;;;3.24;85.14
73600;BME280;61877;48.246;9.220;2022-12-20T11:01:19;94406.34;;;3.29;84.78
73600;BME280;61877;48.246;9.220;2022-12-20T11:03:51;94411.53;;;3.16;85.44
73600;BME280;61877;48.246;9.220;2022-12-20T11:06:18;94404.66;;;3.15;85.20
73600;BME280;61877;48.246;9.220;2022-12-20T11:08:44;94390.56;;;3.19;85.57
73600;BME280;61877;48.246;9.220;2022-12-20T11:11:12;94390.78;;;3.23;85.68
73600;BME280;61877;48.246;9.220;2022-12-20T11:13:39;94382.75;;;3.28;85.66
73600;BME280;61877;48.246;9.220;2022-12-20T11:16:08;94380.31;;;3.50;84.54
73600;BME280;61877;48.246;9.220;2022-12-20T11:18:50;94377.03;;;3.39;84.98
73600;BME280;61877;48.246;9.220;2022-12-20T11:21:26;94377.97;;;3.48;85.21
73600;BME280;61877;48.246;9.220;2022-12-20T11:24:06;94372.31;;;3.55;84.40
73600;BME280;61877;48.246;9.220;2022-12-20T11:26:44;94366.94;;;3.41;84.90
73600;BME280;61877;48.246;9.220;2022-12-20T11:29:27;94359.41;;;3.48;84.73
73600;BME280;61877;48.246;9.220;2022-12-20T11:32:04;94347.81;;;3.63;84.15
73600;BME280;61877;48.246;9.220;2022-12-20T11:34:38;94342.00;;;3.79;83.31
73600;BME280;61877;48.246;9.220;2022-12-20T11:37:17;94350.25;;;3.78;83.89
73600;BME280;61877;48.246;9.220;2022-12-20T11:39:50;94342.50;;;3.63;83.49
73600;BME280;61877;48.246;9.220;2022-12-20T11:42:29;94345.94;;;3.45;84.16
73600;BME280;61877;48.246;9.220;2022-12-20T11:45:04;94340.13;;;3.43;84.06
73600;BME280;61877;48.246;9.220;2022-12-20T11:47:46;94336.91;;;3.46;84.99
73600;BME280;61877;48.246;9.220;2022-12-20T11:50:34;94338.38;;;3.33;85.41
73600;BME280;61877;48.246;9.220;2022-12-20T11:53:06;94340.44;;;3.41;86.83
73600;BME280;61877;48.246;9.220;2022-12-20T11:55:36;94333.38;;;3.50;85.23
73600;BME280;61877;48.246;9.220;2022-12-20T11:58:09;94326.00;;;3.47;84.95
73600;BME280;61877;48.246;9.220;2022-12-20T12:00:40;94317.97;;;3.89;85.22
73600;BME280;61877;48.246;9.220;2022-12-20T12:03:12;94305.53;;;4.17;83.38
73600;BME280;61877;48.246;9.220;2022-12-20T12:05:42;94310.81;;;4.49;82.45
73600;BME280;61877;48.246;9.220;2022-12-20T12:08:13;94302.16;;;4.84;80.07
73600;BME280;61877;48.246;9.220;2022-12-20T12:10:46;94298.94;;;4.87;79.79
73600;BME280;61877;48.246;9.220;2022-12-20T12:13:17;94286.91;;;4.90;78.96
73600;BME280;61877;48.246;9.220;2022-12-20T12:15:51;94277.06;;;5.04;79.36
73600;BME280;61877;48.246;9.220;2022-12-20T12:18:20;94274.56;;;5.07;79.61
73600;BME280;61877;48.246;9.220;2022-12-20T12:20:50;94282.44;;;5.12;79.93
73600;BME280;61877;48.246;9.220;2022-12-20T12:23:21;94283.44;;;5.03;79.44
73600;BME280;61877;48.246;9.220;2022-12-20T12:25:48;94289.16;;;5.10;79.13
73600;BME280;61877;48.246;9.220;2022-12-20T12:28:14;94282.38;;;5.04;80.30
73600;BME280;61877;48.246;9.220;2022-12-20T12:30:45;94290.84;;;4.92;79.56
73600;BME280;61877;48.246;9.220;2022-12-20T12:33:17;94284.44;;;4.80;80.71
73600;BME280;61877;48.246;9.220;2022-12-20T12:36:01;94287.91;;;4.67;80.45
73600;BME280;61877;48.246;9.220;2022-12-20T12:38:52;94282.38;;;4.63;81.85
73600;BME280;61877;48.246;9.220;2022-12-20T12:41:48;94273.81;;;4.39;81.81
73600;BME280;61877;48.246;9.220;2022-12-20T12:44:33;94263.00;;;4.36;83.04
73600;BME280;61877;48.246;9.220;2022-12-20T12:47:04;94265.84;;;4.53;83.11
73600;BME280;61877;48.246;9.220;2022-12-20T12:49:35;94266.94;;;4.65;81.57
73600;BME280;61877;48.246;9.220;2022-12-20T12:52:02;94262.09;;;4.81;81.28
73600;BME280;61877;48.246;9.220;2022-12-20T12:54:34;94266.63;;;4.94;80.76
73600;BME280;61877;48.246;9.220;2022-12-20T12:57:01;94270.91;;;5.17;79.70
73600;BME280;61877;48.246;9.220;2022-12-20T12:59:48;94261.53;;;5.19;79.93
73600;BME280;61877;48.246;9.220;2022-12-20T13:02:32;94263.38;;;5.32;78.27
73600;BME280;61877;48.246;9.220;2022-12-20T13:05:29;94260.34;;;5.61;78.59
73600;BME280;61877;48.246;9.220;2022-12-20T13:07:55;94269.31;;;5.65;78.16
73600;BME280;61877;48.246;9.220;2022-12-20T13:13:32;94277.00;;;5.17;79.16
73600;BME280;61877;48.246;9.220;2022-12-20T13:16:12;94276.88;;;4.87;80.39
73600;BME280;61877;48.246;9.220;2022-12-20T13:18:37;94280.69;;;4.81;82.04